Time;durP1;ratioP1;P1;durP2;ratioP2;P2;SDS_P1;SDS_P2;PMS_P1;PMS_P2;Temp;Humidity;BMP_temperature;BMP_pressure;BME280_temperature;BME280_humidity;BME280_pressure;Samples;Min_cycle;Max_cycle;Signal;HPM_P1;HPM_P2
2022/07/10 00:00:32;;;;;;;1.90;1.50;;;25.60;46.70;;;;;;6146633;23;20133;-82
2022/07/10 00:02:58;;;;;;;1.70;1.53;;;25.60;46.80;;;;;;6120698;23;20397;-82
2022/07/10 00:05:25;;;;;;;1.30;1.10;;;25.60;46.60;;;;;;6120287;23;20420;-82
2022/07/10 00:07:51;;;;;;;1.83;1.60;;;25.60;46.70;;;;;;6146669;23;20378;-82
2022/07/10 00:10:18;;;;;;;1.43;1.30;;;25.60;46.70;;;;;;6144796;23;20400;-82
2022/07/10 00:12:49;;;;;;;1.20;1.00;;;25.60;46.60;;;;;;6120122;23;20390;-82
2022/07/10 00:15:16;;;;;;;1.20;1.10;;;25.70;46.60;;;;;;6118833;23;20683;-82
2022/07/10 00:17:43;;;;;;;1.10;1.00;;;25.70;46.60;;;;;;6119689;23;20388;-82
2022/07/10 00:20:10;;;;;;;1.90;1.43;;;25.70;46.60;;;;;;6120365;23;20377;-82
2022/07/10 00:22:39;;;;;;;1.50;1.27;;;25.70;46.60;;;;;;6119559;23;20389;-83
2022/07/10 00:25:06;;;;;;;2.07;1.60;;;25.70;46.60;;;;;;6145477;23;20803;-83
2022/07/10 00:27:32;;;;;;;1.57;1.37;;;25.70;46.60;;;;;;6120163;23;20389;-83
2022/07/10 00:29:58;;;;;;;1.50;1.30;;;25.60;46.50;;;;;;6120688;23;20392;-83
2022/07/10 00:35:46;;;;;;;1.30;1.10;;;25.70;46.60;;;;;;6146541;23;20425;-82
2022/07/10 00:38:12;;;;;;;1.30;1.10;;;25.60;46.70;;;;;;6115071;23;20397;-82
2022/07/10 00:40:38;;;;;;;1.40;1.30;;;25.60;46.60;;;;;;6114973;23;20170;-81
2022/07/10 00:46:27;;;;;;;1.47;1.27;;;25.70;46.60;;;;;;6116633;23;20157;-82
2022/07/10 00:48:54;;;;;;;1.43;1.33;;;25.60;46.60;;;;;;6115480;23;20378;-82
2022/07/10 00:51:25;;;;;;;1.37;1.20;;;25.60;46.60;;;;;;6116038;23;20446;-82
2022/07/10 00:53:51;;;;;;;1.83;1.43;;;25.60;46.60;;;;;;6115027;23;20384;-80
2022/07/10 00:56:21;;;;;;;1.90;1.50;;;25.60;46.60;;;;;;6109516;23;20370;-79
2022/07/10 00:58:49;;;;;;;1.20;1.00;;;25.70;46.70;;;;;;6111517;23;20369;-80
2022/07/10 01:01:15;;;;;;;2.00;1.33;;;25.60;46.60;;;;;;6110067;23;20422;-80
2022/07/10 01:03:45;;;;;;;1.27;1.10;;;25.70;46.70;;;;;;6111318;23;20420;-80
2022/07/10 01:06:15;;;;;;;1.77;1.20;;;25.60;46.60;;;;;;6110304;23;20394;-79
2022/07/10 01:08:42;;;;;;;1.60;1.40;;;25.70;46.70;;;;;;6108734;23;20413;-80
2022/07/10 01:11:11;;;;;;;1.40;1.30;;;25.70;46.70;;;;;;6109922;23;20390;-80
2022/07/10 01:13:39;;;;;;;1.63;1.33;;;25.60;46.60;;;;;;6110880;23;20374;-79
2022/07/10 01:16:05;;;;;;;1.30;1.20;;;25.70;46.60;;;;;;6110064;23;20381;-79
2022/07/10 01:18:30;;;;;;;1.40;1.30;;;25.70;46.60;;;;;;6110124;23;20393;-79
2022/07/10 01:20:56;;;;;;;1.27;1.00;;;25.60;46.50;;;;;;6109779;23;20161;-79
2022/07/10 01:23:23;;;;;;;1.23;1.00;;;25.60;46.50;;;;;;6111321;23;20390;-79
2022/07/10 01:25:50;;;;;;;1.33;1.20;;;25.70;46.60;;;;;;6111038;23;20169;-80
2022/07/10 01:28:17;;;;;;;1.27;1.10;;;25.70;46.70;;;;;;6110777;23;20441;-79
2022/07/10 01:30:43;;;;;;;1.43;1.30;;;25.70;47.20;;;;;;6111219;23;20756;-80
2022/07/10 01:33:09;;;;;;;1.43;1.07;;;25.70;46.60;;;;;;6110298;23;20382;-80
2022/07/10 01:35:34;;;;;;;1.40;1.07;;;25.70;46.60;;;;;;6110131;23;20417;-79
2022/07/10 01:38:00;;;;;;;1.47;1.20;;;25.70;46.60;;;;;;6124218;23;20165;-80
2022/07/10 01:40:26;;;;;;;2.10;1.40;;;25.70;46.60;;;;;;6140912;23;20212;-80
2022/07/10 01:42:51;;;;;;;1.43;1.20;;;25.70;46.70;;;;;;6114281;23;20636;-80
2022/07/10 01:45:20;;;;;;;1.40;1.30;;;25.70;46.60;;;;;;6113864;23;20687;-79
2022/07/10 01:47:46;;;;;;;1.73;1.10;;;25.70;46.60;;;;;;6114453;23;20153;-80
2022/07/10 01:50:11;;;;;;;1.70;1.60;;;25.70;46.60;;;;;;6115296;23;20384;-79
2022/07/10 01:52:50;;;;;;;1.40;1.30;;;25.70;46.60;;;;;;6114460;23;20385;-79
2022/07/10 01:55:34;;;;;;;1.40;1.10;;;25.70;46.60;;;;;;6141058;23;20149;-80
2022/07/10 01:58:07;;;;;;;1.33;1.07;;;25.70;46.60;;;;;;6120632;23;20385;-82
2022/07/10 02:00:35;;;;;;;1.70;1.17;;;25.70;46.60;;;;;;6120668;23;20389;-82
2022/07/10 02:05:45;;;;;;;1.93;1.40;;;25.70;46.60;;;;;;6145421;23;20435;-83
2022/07/10 02:08:11;;;;;;;1.37;1.17;;;25.60;46.60;;;;;;6145925;23;20357;-83
2022/07/10 02:10:39;;;;;;;1.40;1.20;;;25.70;46.60;;;;;;6147553;23;20201;-82
2022/07/10 02:13:09;;;;;;;1.20;1.07;;;25.60;46.60;;;;;;6121630;23;20157;-82
2022/07/10 02:15:38;;;;;;;1.97;1.47;;;25.70;46.70;;;;;;6121910;23;20393;-82
2022/07/10 02:18:04;;;;;;;1.20;1.10;;;25.70;46.70;;;;;;6120902;23;20919;-83
2022/07/10 02:20:34;;;;;;;1.40;1.30;;;25.70;46.70;;;;;;6147951;23;20384;-82
2022/07/10 02:23:02;;;;;;;1.43;1.23;;;25.70;46.70;;;;;;6147563;23;20360;-83
2022/07/10 02:25:28;;;;;;;1.80;1.33;;;25.70;46.70;;;;;;6122207;23;20417;-82
2022/07/10 02:27:54;;;;;;;1.17;1.07;;;25.70;46.70;;;;;;6122033;23;20368;-82
2022/07/10 02:30:23;;;;;;;1.70;1.10;;;25.70;46.70;;;;;;6122683;23;20245;-82
2022/07/10 02:32:49;;;;;;;1.30;1.20;;;25.60;46.60;;;;;;6147947;23;20156;-82
2022/07/10 02:35:14;;;;;;;1.47;1.20;;;25.70;46.70;;;;;;6147937;23;20369;-82
2022/07/10 02:37:40;;;;;;;2.53;1.30;;;25.70;46.70;;;;;;6148054;23;20169;-83
2022/07/10 02:40:36;;;;;;;1.40;1.30;;;25.70;46.60;;;;;;6144618;23;20169;-80
2022/07/10 02:43:02;;;;;;;1.20;1.10;;;25.70;46.60;;;;;;6118503;23;20188;-80
2022/07/10 02:45:28;;;;;;;1.67;1.47;;;25.70;46.60;;;;;;6117202;23;20800;-80
2022/07/10 02:47:54;;;;;;;1.70;1.23;;;25.70;46.60;;;;;;6117547;23;20413;-80
2022/07/10 02:50:20;;;;;;;2.07;1.10;;;25.70;46.60;;;;;;6143642;23;20381;-80
2022/07/10 02:53:00;;;;;;;1.20;1.10;;;25.70;46.60;;;;;;6117576;23;20153;-80
2022/07/10 02:55:26;;;;;;;1.60;1.33;;;25.70;46.50;;;;;;6143527;23;20153;-80
2022/07/10 02:57:52;;;;;;;2.10;1.30;;;25.70;46.50;;;;;;6117795;23;20451;-80
2022/07/10 03:00:20;;;;;;;1.20;1.00;;;25.70;46.50;;;;;;6116983;23;20389;-80
2022/07/10 03:02:46;;;;;;;1.20;1.10;;;25.70;46.50;;;;;;6143613;23;20157;-80
2022/07/10 03:05:12;;;;;;;1.80;1.43;;;25.70;46.50;;;;;;6143190;23;20440;-80
2022/07/10 03:07:38;;;;;;;1.47;1.33;;;25.70;46.50;;;;;;6142756;23;20416;-79
2022/07/10 03:10:07;;;;;;;1.70;1.40;;;25.70;46.60;;;;;;6142851;23;20284;-79
2022/07/10 03:12:35;;;;;;;1.73;1.37;;;25.70;46.60;;;;;;6117969;23;20164;-80
2022/07/10 03:15:05;;;;;;;1.50;1.20;;;25.70;46.50;;;;;;6144383;23;20373;-79
2022/07/10 03:17:31;;;;;;;1.20;1.00;;;25.70;46.50;;;;;;6117496;23;20373;-79
2022/07/10 03:20:35;;;;;;;1.00;0.90;;;25.70;46.50;;;;;;6116257;23;20387;-79
2022/07/10 03:23:01;;;;;;;1.40;1.20;;;25.70;46.50;;;;;;6117604;23;20373;-79
2022/07/10 03:25:27;;;;;;;1.60;1.10;;;25.70;46.60;;;;;;6117161;23;20431;-80
2022/07/10 03:27:59;;;;;;;1.10;1.00;;;25.70;46.60;;;;;;6118069;23;20157;-79
2022/07/10 03:30:27;;;;;;;1.40;1.20;;;25.70;46.60;;;;;;6117204;23;20180;-79
2022/07/10 03:32:53;;;;;;;1.37;1.27;;;25.70;46.60;;;;;;6142751;23;20393;-79
2022/07/10 03:35:19;;;;;;;1.20;1.00;;;25.70;46.60;;;;;;6143957;23;20405;-79
2022/07/10 03:37:45;;;;;;;1.77;1.20;;;25.70;46.60;;;;;;6112152;23;20501;-79
2022/07/10 03:40:11;;;;;;;1.93;1.40;;;25.70;46.60;;;;;;6112566;23;20404;-79
2022/07/10 03:42:36;;;;;;;1.73;1.63;;;25.70;46.60;;;;;;6112457;23;20158;-81
2022/07/10 03:45:02;;;;;;;1.30;1.10;;;25.70;46.60;;;;;;6113886;23;20457;-80
2022/07/10 03:47:31;;;;;;;1.47;1.13;;;25.70;46.60;;;;;;6113547;23;20153;-80
2022/07/10 03:49:57;;;;;;;1.70;1.40;;;25.70;46.60;;;;;;6112715;23;20413;-80
2022/07/10 03:52:31;;;;;;;2.07;1.40;;;25.70;46.60;;;;;;6112539;23;20688;-80
2022/07/10 03:55:02;;;;;;;1.23;1.13;;;25.70;46.60;;;;;;6114248;23;20162;-80
2022/07/10 04:00:14;;;;;;;1.90;1.20;;;25.80;46.60;;;;;;6114117;23;20434;-80
2022/07/10 04:02:40;;;;;;;1.33;1.10;;;25.70;46.60;;;;;;6114620;23;20378;-80
2022/07/10 04:05:07;;;;;;;1.20;1.10;;;25.70;47.10;;;;;;6112535;23;20612;-80
2022/07/10 04:07:33;;;;;;;1.20;1.00;;;25.70;46.60;;;;;;6112215;23;20161;-80
2022/07/10 04:10:04;;;;;;;1.77;1.10;;;25.70;46.50;;;;;;6112770;23;20390;-80
2022/07/10 04:12:30;;;;;;;1.53;0.90;;;25.70;46.50;;;;;;6113519;23;20364;-80
2022/07/10 04:18:18;;;;;;;1.40;1.10;;;25.70;46.50;;;;;;6113356;23;20350;-80
2022/07/10 04:20:44;;;;;;;1.60;1.00;;;25.70;46.60;;;;;;6111511;23;20386;-80
2022/07/10 04:23:09;;;;;;;1.10;1.00;;;25.70;46.60;;;;;;6111262;23;20158;-80
2022/07/10 04:25:35;;;;;;;1.30;1.20;;;25.70;46.60;;;;;;6111265;23;20237;-80
2022/07/10 04:28:03;;;;;;;1.20;1.03;;;25.70;46.60;;;;;;6113246;23;20173;-80
2022/07/10 04:30:29;;;;;;;1.20;1.10;;;25.70;46.60;;;;;;6110636;23;20181;-80
2022/07/10 04:32:55;;;;;;;1.20;1.07;;;25.70;46.60;;;;;;6112407;23;20374;-80
2022/07/10 04:35:20;;;;;;;1.17;0.90;;;25.70;46.60;;;;;;6113710;23;20149;-80
2022/07/10 04:37:46;;;;;;;2.30;1.20;;;25.70;46.60;;;;;;6114479;23;20171;-80
2022/07/10 04:40:12;;;;;;;1.67;1.30;;;25.70;46.60;;;;;;6116897;23;20164;-80
2022/07/10 04:42:38;;;;;;;2.10;1.27;;;25.70;46.60;;;;;;6117247;23;20244;-80
2022/07/10 04:45:06;;;;;;;1.40;1.10;;;25.70;46.60;;;;;;6116310;23;20180;-80
2022/07/10 04:47:32;;;;;;;1.10;1.00;;;25.70;46.70;;;;;;6142836;23;20164;-80
2022/07/10 04:50:13;;;;;;;1.30;1.00;;;25.70;46.70;;;;;;6116757;23;20479;-80
2022/07/10 04:52:41;;;;;;;1.30;1.07;;;25.70;46.70;;;;;;6143071;23;20138;-80
2022/07/10 04:55:07;;;;;;;1.53;1.10;;;25.80;46.80;;;;;;6142236;23;20444;-80
2022/07/10 04:57:38;;;;;;;1.40;0.93;;;25.70;46.60;;;;;;6142654;23;20381;-80
2022/07/10 05:00:04;;;;;;;1.20;1.00;;;25.80;46.60;;;;;;6116643;23;20380;-80
2022/07/10 05:02:30;;;;;;;1.30;1.10;;;25.70;46.50;;;;;;6142831;23;20377;-80
2022/07/10 05:04:56;;;;;;;1.63;1.17;;;25.80;46.60;;;;;;6141778;23;20471;-80
2022/07/10 05:07:21;;;;;;;1.17;0.97;;;25.80;46.50;;;;;;6116389;23;20164;-81
2022/07/10 05:09:52;;;;;;;1.00;0.90;;;25.80;46.50;;;;;;6142300;23;20134;-80
2022/07/10 05:12:18;;;;;;;1.27;1.17;;;25.80;46.50;;;;;;6117031;23;20214;-81
2022/07/10 05:18:06;;;;;;;0.97;0.87;;;25.80;46.50;;;;;;6142198;23;20160;-81
2022/07/10 05:20:35;;;;;;;1.50;1.17;;;25.80;46.60;;;;;;6116045;23;20427;-80
2022/07/10 05:23:01;;;;;;;1.30;1.10;;;25.80;46.50;;;;;;6116331;23;20385;-80
2022/07/10 05:25:32;;;;;;;1.50;1.20;;;25.80;46.50;;;;;;6142895;23;20418;-81
2022/07/10 05:27:58;;;;;;;3.73;1.07;;;25.80;46.50;;;;;;6117211;23;20381;-81
2022/07/10 05:33:47;;;;;;;1.20;1.00;;;25.80;46.70;;;;;;6142603;23;20165;-80
2022/07/10 05:36:12;;;;;;;1.17;1.07;;;25.80;46.70;;;;;;6143029;23;20520;-81
2022/07/10 05:38:38;;;;;;;1.10;0.97;;;25.80;46.70;;;;;;6142551;23;20392;-81
2022/07/10 05:41:23;;;;;;;1.20;1.10;;;25.80;46.80;;;;;;6116960;23;20160;-81
2022/07/10 05:43:49;;;;;;;1.30;1.07;;;25.80;46.70;;;;;;6116988;23;20149;-80
2022/07/10 05:46:16;;;;;;;1.57;0.93;;;25.80;46.80;;;;;;6119012;23;20391;-80
2022/07/10 05:48:41;;;;;;;1.30;1.10;;;25.80;46.70;;;;;;6118953;23;20208;-80
2022/07/10 05:51:07;;;;;;;1.87;1.40;;;25.80;46.70;;;;;;6118817;23;20388;-79
2022/07/10 05:53:33;;;;;;;1.60;1.10;;;25.80;46.70;;;;;;6143821;23;20210;-80
2022/07/10 05:56:02;;;;;;;1.10;0.93;;;25.80;46.70;;;;;;6117355;23;20157;-80
2022/07/10 05:58:29;;;;;;;1.20;1.00;;;25.80;46.70;;;;;;6143861;23;20149;-80
2022/07/10 06:00:56;;;;;;;1.93;1.10;;;25.80;46.70;;;;;;6118346;23;20385;-80
2022/07/10 06:03:21;;;;;;;1.73;1.23;;;25.80;46.60;;;;;;6117674;23;20491;-80
2022/07/10 06:05:48;;;;;;;1.23;1.00;;;25.80;46.60;;;;;;6144499;23;20412;-80
2022/07/10 06:08:13;;;;;;;1.20;1.00;;;25.90;46.70;;;;;;6118363;23;20240;-80
2022/07/10 06:10:53;;;;;;;1.10;1.00;;;25.80;46.60;;;;;;6118425;23;20381;-80
2022/07/10 06:13:21;;;;;;;1.10;0.90;;;25.90;46.60;;;;;;6118399;23;20176;-79
2022/07/10 06:15:47;;;;;;;1.20;0.97;;;25.80;46.50;;;;;;6144135;23;20398;-79
2022/07/10 06:18:13;;;;;;;1.20;0.90;;;25.90;46.60;;;;;;6144420;23;20444;-80
2022/07/10 06:24:03;;;;;;;1.20;1.00;;;25.90;46.60;;;;;;6143567;23;20168;-80
2022/07/10 06:26:37;;;;;;;1.30;1.00;;;25.90;46.60;;;;;;6117930;23;20381;-80
2022/07/10 06:29:07;;;;;;;1.43;1.00;;;25.90;46.60;;;;;;6118142;23;20369;-80
2022/07/10 06:31:46;;;;;;;1.27;1.03;;;25.90;46.60;;;;;;6118425;23;20373;-79
2022/07/10 06:34:14;;;;;;;1.30;1.13;;;25.90;46.60;;;;;;6143640;23;20684;-80
2022/07/10 06:36:42;;;;;;;1.10;0.97;;;25.90;46.60;;;;;;6144187;23;20369;-80
2022/07/10 06:39:11;;;;;;;1.17;1.00;;;25.90;46.60;;;;;;6113177;23;20469;-80
2022/07/10 06:41:36;;;;;;;1.10;0.93;;;25.90;46.60;;;;;;6112932;23;20386;-80
2022/07/10 06:50:15;;;;;;;1.30;1.00;;;25.90;46.60;;;;;;6113277;23;20361;-80
2022/07/10 06:52:53;;;;;;;1.20;1.00;;;25.90;46.70;;;;;;6113364;23;20444;-80
2022/07/10 06:55:33;;;;;;;1.10;0.90;;;25.90;46.70;;;;;;6111608;23;20374;-79
2022/07/10 06:58:04;;;;;;;1.10;0.80;;;25.90;46.70;;;;;;6113495;23;20390;-79
2022/07/10 07:00:29;;;;;;;1.37;0.90;;;25.90;46.70;;;;;;6112859;23;20382;-79
2022/07/10 07:03:06;;;;;;;1.27;1.03;;;25.90;46.70;;;;;;6114675;23;20381;-79
2022/07/10 07:05:32;;;;;;;1.10;0.90;;;25.90;46.70;;;;;;6114718;23;20405;-79
2022/07/10 07:08:43;;;;;;;1.40;0.93;;;25.90;46.70;;;;;;6113396;23;20452;-79
2022/07/10 07:11:09;;;;;;;2.33;0.90;;;25.90;46.70;;;;;;6113296;23;20154;-79
2022/07/10 07:13:35;;;;;;;1.00;0.90;;;25.90;46.80;;;;;;6114311;23;20366;-79
2022/07/10 07:16:09;;;;;;;1.00;0.90;;;25.90;46.80;;;;;;6113292;23;20386;-80
2022/07/10 07:18:47;;;;;;;1.20;1.00;;;25.90;46.80;;;;;;6112831;23;20157;-79
2022/07/10 07:23:59;;;;;;;1.10;0.97;;;25.90;46.80;;;;;;6114548;23;20358;-80
2022/07/10 07:26:25;;;;;;;1.20;1.00;;;25.90;46.80;;;;;;6112830;23;20394;-79
2022/07/10 07:32:48;;;;;;;1.50;1.20;;;25.90;46.80;;;;;;6114043;23;20157;-79
2022/07/10 07:35:15;;;;;;;1.90;0.90;;;25.90;46.80;;;;;;6113203;23;20354;-80
2022/07/10 07:38:00;;;;;;;1.70;1.00;;;25.90;46.90;;;;;;6114319;23;20410;-80
2022/07/10 07:40:31;;;;;;;1.00;0.87;;;25.90;46.90;;;;;;6116255;23;20458;-80
2022/07/10 07:42:57;;;;;;;1.87;1.70;;;25.90;46.90;;;;;;6141909;23;20716;-80
2022/07/10 07:45:24;;;;;;;1.40;0.90;;;25.90;46.90;;;;;;6115529;23;20421;-80
2022/07/10 07:48:13;;;;;;;1.53;1.00;;;25.90;46.90;;;;;;6116850;23;20381;-80
2022/07/10 07:51:00;;;;;;;1.20;1.00;;;26.00;46.90;;;;;;6116751;23;20392;-79
2022/07/10 07:53:31;;;;;;;1.20;1.07;;;25.90;46.80;;;;;;6142471;23;20357;-79
2022/07/10 07:56:01;;;;;;;1.10;0.80;;;25.90;46.90;;;;;;6142514;23;20476;-79
2022/07/10 07:58:36;;;;;;;1.27;0.90;;;25.90;46.90;;;;;;6116403;23;20417;-78
2022/07/10 08:05:23;;;;;;;1.20;1.00;;;25.90;46.90;;;;;;6052978;23;20426;-79
2022/07/10 08:08:25;;;;;;;1.00;0.83;;;26.00;46.90;;;;;;6052496;23;20459;-80
2022/07/10 09:06:46;;;;;;;1.60;1.00;;;25.90;46.90;;;;;;5857177;24;20412;-82
2022/07/10 09:16:36;;;;;;;1.10;0.90;;;25.90;47.00;;;;;;5830161;24;20389;-79
2022/07/10 09:30:28;;;;;;;;;;;;;;;;;;;;;
2022/07/10 09:50:51;;;;;;;1.40;0.70;;;25.90;47.00;;;;;;4880561;29;20442;-79
2022/07/10 09:53:19;;;;;;;1.80;1.00;;;25.90;47.00;;;;;;4930236;29;20442;-79
2022/07/10 09:59:13;;;;;;;1.10;0.90;;;26.00;47.10;;;;;;4941447;29;20446;-80
2022/07/10 10:01:46;;;;;;;1.13;0.90;;;25.90;47.00;;;;;;4931427;29;20442;-80
2022/07/10 10:04:13;;;;;;;1.13;0.80;;;26.00;47.00;;;;;;4956017;28;20504;-80
2022/07/10 10:06:42;;;;;;;1.10;0.80;;;26.00;47.00;;;;;;4972260;28;20426;-80
2022/07/10 10:09:40;;;;;;;2.30;0.90;;;26.00;46.90;;;;;;4953122;28;20446;-80
2022/07/10 10:12:29;;;;;;;1.10;0.70;;;26.00;46.90;;;;;;4993633;28;20413;-80
2022/07/10 10:14:57;;;;;;;1.10;0.80;;;26.00;46.90;;;;;;5049516;28;20446;-80
2022/07/10 10:17:27;;;;;;;1.20;0.90;;;26.00;46.90;;;;;;5058846;28;20452;-80
2022/07/10 10:22:46;;;;;;;1.63;0.90;;;26.10;46.90;;;;;;5066237;28;20490;-79
2022/07/10 10:25:16;;;;;;;2.50;1.00;;;26.00;46.80;;;;;;5057209;28;20465;-81
2022/07/10 10:35:38;;;;;;;;;;;;;;;;;;;;;
2022/07/10 11:06:08;;;;;;;;;;;;;;;;;;;;;
2022/07/10 12:45:02;;;;;;;1.33;0.90;;;25.80;46.70;;;;;;4855178;29;20511;-79
2022/07/10 12:48:37;;;;;;;;;;;;;;;;;;;;;
2022/07/10 17:21:08;;;;;;;4.07;1.40;;;25.60;46.00;;;;;;4839467;29;20430;-82
2022/07/10 17:24:05;;;;;;;1.30;0.90;;;25.60;46.00;;;;;;4838807;29;20509;-82
2022/07/10 17:27:31;;;;;;;;;;;;;;;;;;;;;
2022/07/10 17:44:20;;;;;;;2.40;0.90;;;25.60;45.90;;;;;;4913873;29;20496;-84
2022/07/10 17:54:30;;;;;;;;;;;;;;;;;;;;;
2022/07/10 18:07:12;;;;;;;1.93;1.00;;;25.50;45.90;;;;;;5019049;28;20455;-84
2022/07/10 18:17:00;;;;;;;4.97;0.90;;;25.50;45.90;;;;;;5052873;28;20374;-84
2022/07/10 18:20:11;;;;;;;1.87;1.00;;;25.50;45.90;;;;;;5012197;28;20867;-85
2022/07/10 18:22:53;;;;;;;0.90;0.80;;;25.50;46.00;;;;;;4994646;28;20512;-83
2022/07/10 18:32:10;;;;;;;1.20;0.90;;;25.50;45.90;;;;;;4934221;29;20407;-84
2022/07/10 18:34:45;;;;;;;1.77;0.80;;;25.50;46.00;;;;;;4932570;29;20415;-85
2022/07/10 18:37:13;;;;;;;1.00;0.70;;;25.50;46.00;;;;;;4933180;29;20458;-84
2022/07/10 18:39:49;;;;;;;1.30;0.90;;;25.50;46.00;;;;;;4933495;29;20407;-84
2022/07/10 18:42:23;;;;;;;1.87;0.80;;;25.60;46.10;;;;;;4933162;29;20412;-84
2022/07/10 18:44:50;;;;;;;1.20;0.90;;;25.60;46.00;;;;;;4933459;29;21048;-83
2022/07/10 18:47:15;;;;;;;2.27;1.00;;;25.60;46.00;;;;;;4933979;29;20499;-83
2022/07/10 18:49:44;;;;;;;3.00;1.00;;;25.50;45.90;;;;;;4933454;29;20448;-83
2022/07/10 18:52:12;;;;;;;3.40;1.10;;;25.60;45.90;;;;;;4934453;29;20176;-83
2022/07/10 19:46:33;;;;;;;1.07;0.80;;;25.50;46.00;;;;;;4952138;28;20470;-84
2022/07/10 20:03:29;;;;;;;1.77;1.10;;;25.40;46.00;;;;;;4881931;29;20421;-83
2022/07/10 20:05:55;;;;;;;1.00;0.80;;;25.40;46.00;;;;;;4901662;29;20503;-82
2022/07/10 20:08:48;;;;;;;1.00;0.80;;;25.40;46.00;;;;;;4931978;29;20411;-82
2022/07/10 20:11:15;;;;;;;1.43;0.80;;;25.40;46.00;;;;;;4931701;29;20674;-81
2022/07/10 20:13:43;;;;;;;1.20;0.90;;;25.40;46.00;;;;;;4917238;29;20478;-82
2022/07/10 20:16:21;;;;;;;1.87;0.90;;;25.50;46.00;;;;;;4917318;29;20420;-82
2022/07/10 20:18:47;;;;;;;1.40;0.90;;;25.50;46.00;;;;;;4933685;29;20455;-82
2022/07/10 20:21:26;;;;;;;1.70;1.10;;;25.50;46.00;;;;;;4952042;29;20426;-82
2022/07/10 20:23:56;;;;;;;1.30;1.00;;;25.50;46.00;;;;;;4952003;29;20190;-82
2022/07/10 20:26:24;;;;;;;1.20;0.80;;;25.50;46.00;;;;;;4951986;29;20491;-82
2022/07/10 20:28:53;;;;;;;1.00;0.80;;;25.50;46.00;;;;;;4982511;28;20418;-82
2022/07/10 20:31:19;;;;;;;1.80;1.07;;;25.50;45.90;;;;;;5049549;28;20482;-82
2022/07/10 20:33:44;;;;;;;1.10;0.80;;;25.50;45.90;;;;;;5033214;28;20469;-82
2022/07/10 20:38:56;;;;;;;1.90;0.90;;;25.50;45.90;;;;;;5104530;28;20184;-82
2022/07/10 20:41:25;;;;;;;1.60;0.90;;;25.50;45.90;;;;;;5093692;28;20419;-81
2022/07/10 20:43:51;;;;;;;1.00;0.70;;;25.50;45.90;;;;;;5111044;28;20423;-81
2022/07/10 20:46:19;;;;;;;1.00;0.90;;;25.50;46.00;;;;;;5111095;28;20454;-81
2022/07/10 20:48:48;;;;;;;1.43;0.83;;;25.50;46.00;;;;;;5109882;28;20483;-80
2022/07/10 20:51:14;;;;;;;1.10;0.90;;;25.50;46.00;;;;;;5086806;28;20419;-80
2022/07/10 20:53:39;;;;;;;1.03;0.80;;;25.50;46.00;;;;;;5086287;28;20423;-79
2022/07/10 20:56:06;;;;;;;1.00;0.90;;;25.50;46.00;;;;;;5105407;28;20177;-80
2022/07/10 20:58:35;;;;;;;1.00;0.73;;;25.50;46.00;;;;;;5086940;28;20181;-80
2022/07/10 21:01:01;;;;;;;1.63;1.00;;;25.50;46.00;;;;;;5104846;28;20434;-80
2022/07/10 21:03:35;;;;;;;1.10;0.70;;;25.50;46.00;;;;;;5086470;28;20408;-80
2022/07/10 21:06:04;;;;;;;0.90;0.80;;;25.50;46.00;;;;;;5105135;28;20150;-79
2022/07/10 21:08:30;;;;;;;1.47;0.90;;;25.50;46.00;;;;;;5086399;28;20416;-79
2022/07/10 21:10:58;;;;;;;1.00;0.80;;;25.50;46.00;;;;;;5086708;28;20416;-80
2022/07/10 21:13:27;;;;;;;1.10;0.77;;;25.50;46.00;;;;;;5086864;28;20249;-80
2022/07/10 21:15:55;;;;;;;1.33;0.97;;;25.50;46.00;;;;;;5105532;28;20753;-80
2022/07/10 21:18:25;;;;;;;0.90;0.73;;;25.50;46.00;;;;;;5104567;28;20400;-80
2022/07/10 21:20:51;;;;;;;1.23;0.97;;;25.50;46.00;;;;;;5086275;28;20412;-80
2022/07/10 21:23:18;;;;;;;1.67;0.90;;;25.50;46.00;;;;;;5104827;28;20403;-80
2022/07/10 21:25:46;;;;;;;2.00;0.97;;;25.50;46.00;;;;;;5104997;28;20601;-80
2022/07/10 21:28:12;;;;;;;1.30;0.80;;;25.50;46.00;;;;;;5104756;28;20411;-80
2022/07/10 21:30:40;;;;;;;1.20;0.90;;;25.50;46.00;;;;;;5086484;28;20423;-79
2022/07/10 21:33:09;;;;;;;1.33;0.70;;;25.50;46.00;;;;;;5104820;28;20169;-79
2022/07/10 21:35:35;;;;;;;1.10;0.80;;;25.50;46.00;;;;;;5104528;28;20498;-79
2022/07/10 21:38:02;;;;;;;1.17;0.80;;;25.50;46.00;;;;;;5086471;28;20436;-79
2022/07/10 21:40:31;;;;;;;0.90;0.60;;;25.50;46.10;;;;;;5086292;28;20472;-79
2022/07/10 21:42:56;;;;;;;1.20;0.80;;;25.50;46.10;;;;;;5086043;28;20404;-79
2022/07/10 21:45:22;;;;;;;1.13;0.80;;;25.50;46.10;;;;;;5085866;28;20455;-79
2022/07/10 21:47:48;;;;;;;1.37;0.80;;;25.50;46.10;;;;;;5104401;28;20185;-79
2022/07/10 21:50:14;;;;;;;1.10;0.80;;;25.40;46.00;;;;;;5095653;28;20184;-79
2022/07/10 21:52:45;;;;;;;1.53;0.80;;;25.50;46.10;;;;;;5125187;28;20647;-79
2022/07/10 21:55:11;;;;;;;1.03;0.70;;;25.50;46.10;;;;;;5106474;28;20454;-79
2022/07/10 21:57:36;;;;;;;0.90;0.70;;;25.50;46.10;;;;;;5123798;28;20411;-79
2022/07/10 22:00:05;;;;;;;0.90;0.70;;;25.50;46.10;;;;;;5107127;28;20165;-79
2022/07/10 22:02:31;;;;;;;2.00;0.70;;;25.50;46.10;;;;;;5124802;28;20172;-79
2022/07/10 22:04:57;;;;;;;1.03;0.90;;;25.50;46.10;;;;;;5107143;28;20419;-79
2022/07/10 22:07:23;;;;;;;1.20;0.80;;;25.50;46.10;;;;;;5106563;28;20181;-79
2022/07/10 22:09:51;;;;;;;1.00;0.70;;;25.50;46.10;;;;;;5106623;28;20173;-79
2022/07/10 22:12:17;;;;;;;0.90;0.70;;;25.50;46.10;;;;;;5124854;28;20492;-79
2022/07/10 22:14:43;;;;;;;1.00;0.70;;;25.50;46.10;;;;;;5105319;28;20453;-79
2022/07/10 22:17:08;;;;;;;1.17;0.80;;;25.50;46.10;;;;;;5123472;28;20439;-79
2022/07/10 22:19:34;;;;;;;1.20;0.73;;;25.50;46.10;;;;;;5122502;28;20188;-79
2022/07/10 22:22:00;;;;;;;1.10;0.70;;;25.50;46.10;;;;;;5105985;28;20161;-79
2022/07/10 22:24:26;;;;;;;2.70;0.80;;;25.50;46.10;;;;;;5123750;28;20433;-80
2022/07/10 22:26:52;;;;;;;1.20;0.80;;;25.50;46.00;;;;;;5123181;28;20243;-79
2022/07/10 22:32:40;;;;;;;2.60;0.70;;;25.50;46.00;;;;;;5118636;28;20239;-80
2022/07/10 22:35:06;;;;;;;1.00;0.73;;;25.50;46.10;;;;;;5093219;28;20447;-79
2022/07/10 22:37:37;;;;;;;0.97;0.67;;;25.50;46.10;;;;;;5094306;28;20431;-79
2022/07/10 22:40:03;;;;;;;1.10;0.70;;;25.50;46.10;;;;;;5114585;28;20466;-79
2022/07/10 22:42:29;;;;;;;1.00;0.70;;;25.50;46.00;;;;;;5103497;28;20416;-80
2022/07/10 22:44:55;;;;;;;1.23;1.00;;;25.60;46.10;;;;;;5113070;28;20760;-80
2022/07/10 22:47:21;;;;;;;1.10;0.80;;;25.50;46.60;;;;;;5129103;27;20434;-79
2022/07/10 22:49:47;;;;;;;1.00;0.80;;;25.50;46.00;;;;;;5120727;28;20225;-79
2022/07/10 22:52:13;;;;;;;1.03;0.70;;;25.60;46.10;;;;;;5114430;28;20411;-80
2022/07/10 22:54:39;;;;;;;1.00;0.70;;;25.50;46.00;;;;;;5132479;27;20245;-80
2022/07/10 22:57:05;;;;;;;0.90;0.70;;;25.50;46.00;;;;;;5135254;27;20169;-79
2022/07/10 22:59:31;;;;;;;0.90;0.80;;;25.60;46.00;;;;;;5112516;28;20177;-80
2022/07/10 23:01:56;;;;;;;1.17;0.80;;;25.60;46.00;;;;;;5114201;28;20422;-79
2022/07/10 23:04:23;;;;;;;1.30;0.73;;;25.60;46.00;;;;;;5123543;27;20438;-79
2022/07/10 23:06:49;;;;;;;0.90;0.70;;;25.60;46.00;;;;;;5125007;27;20244;-79
2022/07/10 23:09:15;;;;;;;1.70;1.20;;;25.60;46.00;;;;;;5098745;28;20443;-79
2022/07/10 23:11:40;;;;;;;1.00;0.80;;;25.60;46.00;;;;;;5114566;28;20256;-80
2022/07/10 23:14:06;;;;;;;0.90;0.70;;;25.60;46.00;;;;;;5095187;28;20235;-79
2022/07/10 23:16:32;;;;;;;1.40;1.20;;;25.60;46.00;;;;;;5113546;28;20640;-79
2022/07/10 23:18:58;;;;;;;1.20;0.80;;;25.60;46.00;;;;;;5114949;28;20173;-80
2022/07/10 23:21:23;;;;;;;1.17;0.67;;;25.60;46.00;;;;;;5094304;28;20181;-79
2022/07/10 23:23:50;;;;;;;1.40;0.70;;;25.60;46.00;;;;;;5098004;28;20184;-81
2022/07/10 23:26:16;;;;;;;1.03;0.80;;;25.60;46.00;;;;;;5112645;28;20169;-79
2022/07/10 23:28:43;;;;;;;0.90;0.70;;;25.60;46.00;;;;;;5116204;28;20415;-80
2022/07/10 23:31:09;;;;;;;1.03;0.73;;;25.60;46.00;;;;;;5114402;28;20169;-79
2022/07/10 23:33:34;;;;;;;0.80;0.60;;;25.60;46.00;;;;;;5114895;28;20419;-79
2022/07/10 23:36:00;;;;;;;1.10;0.83;;;25.60;46.00;;;;;;5098227;28;20195;-79
2022/07/10 23:38:34;;;;;;;0.90;0.70;;;25.60;46.00;;;;;;5096415;28;20178;-80
2022/07/10 23:41:00;;;;;;;1.00;0.70;;;25.60;46.00;;;;;;5098100;28;20173;-80
2022/07/10 23:43:28;;;;;;;1.17;0.70;;;25.60;46.00;;;;;;5096661;28;20419;-80
2022/07/10 23:45:54;;;;;;;1.00;0.70;;;25.60;46.00;;;;;;5099115;28;20491;-83
2022/07/10 23:51:04;;;;;;;0.87;0.70;;;25.60;46.00;;;;;;5115399;28;20168;-80
2022/07/10 23:53:31;;;;;;;1.10;0.80;;;25.60;46.00;;;;;;5097486;28;20412;-80
2022/07/10 23:55:57;;;;;;;0.90;0.70;;;25.60;46.00;;;;;;5100392;28;20418;-81
2022/07/10 23:58:22;;;;;;;0.90;0.70;;;25.60;46.00;;;;;;5114875;28;20468;-80
